Belair, Louisiana
Current Conditions -  °F | °C
As of 3:55 AM on Sunday 21 Dec 2014 (Local Time) from KNBG Reporting Station
Overcast Overcast  
Wind Chill: 53°   Ceiling: 1100
Heat Index: 53°   Visibility: 10mi
Dew Point: 49°   Wind: 7mph
Humidity: 86%   Direction: 40°NE
Pressure: 30.11"   Gusts: NA
Location:  29.7092°N, 89.8867°W
Report Text: KNBG 210955Z AUTO 04006KT 10SM OVC011 12/09 A3011 RMK AO2 SLP196 T01170094 $
Loading
Personal Weather Stations






























Interactive Weather Map New forecast layout! Learn more

10-Day Weather Forecast

Advertisements
Track Severe Weather on mobile